Time;durP1;ratioP1;P1;durP2;ratioP2;P2;SDS_P1;SDS_P2;PMS_P1;PMS_P2;Temp;Humidity;BMP_temperature;BMP_pressure;BME280_temperature;BME280_humidity;BME280_pressure;Samples;Min_cycle;Max_cycle;Signal;HPM_P1;HPM_P2
2020/12/21 00:00:53;;;;;;;20.90;15.53;;;7.20;66.70;;;;;;6221540;22;37818;-80
2020/12/21 00:03:20;;;;;;;18.83;15.40;;;7.20;66.50;;;;;;6248663;22;39672;-81
2020/12/21 00:05:51;;;;;;;18.87;14.87;;;7.20;66.60;;;;;;6248550;22;37335;-80
2020/12/21 00:08:20;;;;;;;18.60;15.03;;;7.20;67.10;;;;;;6248273;22;39319;-81
2020/12/21 00:10:55;;;;;;;19.27;15.63;;;7.20;66.30;;;;;;6248052;22;38914;-80
2020/12/21 00:13:28;;;;;;;20.77;15.90;;;7.30;66.20;;;;;;6248200;22;38156;-81
2020/12/21 00:15:59;;;;;;;21.53;16.80;;;7.20;66.20;;;;;;6218786;22;36866;-81
2020/12/21 00:18:26;;;;;;;20.33;16.70;;;7.20;66.20;;;;;;6220978;22;39485;-80
2020/12/21 00:20:56;;;;;;;20.87;16.37;;;7.20;66.20;;;;;;6247435;22;40031;-81
2020/12/21 00:23:27;;;;;;;19.17;14.87;;;7.30;66.20;;;;;;6248381;22;38268;-81
2020/12/21 00:26:00;;;;;;;21.70;16.27;;;7.20;66.10;;;;;;6220947;22;37294;-81
2020/12/21 00:28:27;;;;;;;20.70;15.87;;;7.20;66.10;;;;;;6247861;22;39966;-80
2020/12/21 00:30:57;;;;;;;21.57;16.90;;;7.20;66.10;;;;;;6247778;22;39986;-80
2020/12/21 00:33:24;;;;;;;19.27;15.00;;;7.20;66.20;;;;;;6221918;22;36908;-81
2020/12/21 00:35:53;;;;;;;20.60;15.90;;;7.20;66.20;;;;;;6247990;22;37172;-81
2020/12/21 00:38:24;;;;;;;20.83;15.87;;;7.20;66.00;;;;;;6249019;22;39709;-81
2020/12/21 00:40:51;;;;;;;17.50;15.17;;;7.20;65.70;;;;;;6249762;22;39569;-80
2020/12/21 00:43:20;;;;;;;22.23;15.90;;;7.20;65.80;;;;;;6226876;22;38494;-81
2020/12/21 00:45:47;;;;;;;21.00;16.53;;;7.20;65.80;;;;;;6260354;22;38239;-81
2020/12/21 00:48:14;;;;;;;16.33;14.00;;;7.20;65.90;;;;;;6258750;22;39279;-81
2020/12/21 00:50:41;;;;;;;21.80;16.53;;;7.20;65.90;;;;;;6235307;22;37240;-81
2020/12/21 00:53:08;;;;;;;19.00;14.83;;;7.20;65.70;;;;;;6239775;22;37857;-81
2020/12/21 00:55:36;;;;;;;21.13;17.23;;;7.20;65.60;;;;;;6205978;22;36157;-81
2020/12/21 00:58:03;;;;;;;20.47;15.80;;;7.10;65.60;;;;;;6256278;22;39631;-81
2020/12/21 01:00:30;;;;;;;20.80;15.23;;;7.10;65.80;;;;;;6253494;22;39454;-82
2020/12/21 01:02:57;;;;;;;19.63;15.67;;;7.10;65.90;;;;;;6225647;22;36609;-81
2020/12/21 01:05:24;;;;;;;21.60;15.80;;;7.10;65.80;;;;;;6226554;22;35990;-82
2020/12/21 01:07:51;;;;;;;20.30;15.33;;;7.10;66.10;;;;;;6253096;22;39662;-80
2020/12/21 01:10:18;;;;;;;19.37;14.97;;;7.10;66.00;;;;;;6251750;22;39201;-82
2020/12/21 01:12:46;;;;;;;18.77;15.97;;;7.10;65.80;;;;;;6226384;22;38065;-81
2020/12/21 01:15:13;;;;;;;23.63;15.67;;;7.00;65.90;;;;;;6229511;22;35980;-81
2020/12/21 01:17:40;;;;;;;18.80;15.40;;;7.00;66.40;;;;;;6259690;22;39461;-80
2020/12/21 01:20:07;;;;;;;19.27;16.23;;;7.00;65.70;;;;;;6291838;22;40117;-81
2020/12/21 01:22:36;;;;;;;20.47;16.40;;;7.00;65.50;;;;;;6293451;22;38543;-81
2020/12/21 01:25:03;;;;;;;20.90;16.80;;;6.90;66.00;;;;;;6294149;22;37672;-81
2020/12/21 01:27:32;;;;;;;24.00;16.87;;;6.80;65.20;;;;;;6262194;22;39053;-80
2020/12/21 01:30:00;;;;;;;23.70;17.83;;;6.60;65.10;;;;;;6288433;22;39143;-81
2020/12/21 01:32:28;;;;;;;22.33;17.60;;;6.50;65.30;;;;;;6267905;22;37564;-81
2020/12/21 01:34:54;;;;;;;21.30;16.90;;;6.40;65.50;;;;;;6268380;22;36319;-81
2020/12/21 01:37:21;;;;;;;21.90;17.90;;;6.20;65.80;;;;;;6298386;22;39778;-81
2020/12/21 01:39:48;;;;;;;26.00;19.17;;;6.20;66.10;;;;;;6303596;22;39131;-80
2020/12/21 01:42:16;;;;;;;22.00;17.30;;;6.20;66.30;;;;;;6264274;22;37954;-80
2020/12/21 01:44:43;;;;;;;23.03;17.73;;;6.20;66.50;;;;;;6289742;22;37428;-82
2020/12/21 01:47:12;;;;;;;22.77;17.77;;;6.10;66.70;;;;;;6261105;22;38494;-80
2020/12/21 01:49:39;;;;;;;24.27;17.87;;;6.10;67.00;;;;;;6283185;22;39627;-82
2020/12/21 01:52:07;;;;;;;23.77;17.43;;;6.10;67.40;;;;;;6255683;22;36730;-81
2020/12/21 01:54:34;;;;;;;25.47;18.30;;;6.20;67.60;;;;;;6256523;22;37580;-81
2020/12/21 01:57:01;;;;;;;24.27;18.00;;;6.20;67.70;;;;;;6282235;22;39578;-80
2020/12/21 01:59:28;;;;;;;24.00;18.67;;;6.20;67.90;;;;;;6280160;22;39792;-81
2020/12/21 02:01:56;;;;;;;24.70;18.03;;;6.10;67.80;;;;;;6289526;22;38300;-81
2020/12/21 02:04:24;;;;;;;26.97;18.90;;;6.10;67.70;;;;;;6302496;22;37835;-81
2020/12/21 02:06:51;;;;;;;24.23;18.90;;;6.10;68.00;;;;;;6302444;22;39495;-80
2020/12/21 02:09:18;;;;;;;24.03;17.40;;;6.10;67.70;;;;;;6274935;22;39147;-79
2020/12/21 02:11:45;;;;;;;22.43;17.13;;;6.00;67.50;;;;;;6302927;22;38587;-79
2020/12/21 02:14:11;;;;;;;25.73;19.10;;;6.00;67.70;;;;;;6302924;22;39840;-80
2020/12/21 02:16:38;;;;;;;24.97;17.87;;;6.00;67.80;;;;;;6272724;22;39375;-79
2020/12/21 02:19:05;;;;;;;23.97;17.90;;;5.90;67.70;;;;;;6267484;22;39782;-79
2020/12/21 02:21:33;;;;;;;25.60;19.43;;;5.80;67.80;;;;;;6271147;22;37163;-79
2020/12/21 02:24:00;;;;;;;27.20;19.80;;;5.70;67.70;;;;;;6298588;22;37943;-79
2020/12/21 02:26:27;;;;;;;26.97;20.13;;;5.70;67.70;;;;;;6300555;22;39890;-78
2020/12/21 02:28:57;;;;;;;25.63;18.10;;;5.60;67.70;;;;;;6276540;22;38210;-78
2020/12/21 02:31:25;;;;;;;28.33;19.73;;;5.50;68.00;;;;;;6301239;22;37942;-79
2020/12/21 02:33:52;;;;;;;28.77;19.30;;;5.50;67.80;;;;;;6301655;22;37165;-78
2020/12/21 02:36:20;;;;;;;26.93;19.00;;;5.40;67.70;;;;;;6300974;22;39907;-79
2020/12/21 02:38:48;;;;;;;31.20;20.57;;;5.20;67.70;;;;;;6299456;22;39598;-79
2020/12/21 02:41:17;;;;;;;27.23;19.80;;;5.10;67.90;;;;;;6300718;22;38008;-79
2020/12/21 02:43:44;;;;;;;30.30;19.53;;;5.00;68.40;;;;;;6303304;22;37585;-79
2020/12/21 02:46:14;;;;;;;29.43;19.87;;;5.00;68.30;;;;;;6304329;22;41340;-79
2020/12/21 02:48:41;;;;;;;29.27;19.50;;;4.90;68.30;;;;;;6304850;22;40244;-79
2020/12/21 02:51:08;;;;;;;29.87;20.20;;;4.90;68.60;;;;;;6279931;22;36652;-78
2020/12/21 02:53:35;;;;;;;35.03;20.30;;;4.80;68.80;;;;;;6278331;22;36855;-78
2020/12/21 02:56:05;;;;;;;28.17;20.93;;;4.70;68.80;;;;;;6275425;22;39265;-79
2020/12/21 02:58:32;;;;;;;28.80;20.43;;;4.80;69.20;;;;;;6265426;22;38923;-79
2020/12/21 03:00:59;;;;;;;28.10;21.03;;;4.80;69.60;;;;;;6286728;22;39025;-81
2020/12/21 03:03:26;;;;;;;26.40;19.67;;;4.80;69.70;;;;;;6284431;22;37322;-79
2020/12/21 03:05:53;;;;;;;30.77;20.93;;;4.80;69.90;;;;;;6281403;22;39770;-79
2020/12/21 03:08:22;;;;;;;29.10;20.63;;;4.80;70.00;;;;;;6281049;22;39930;-79
2020/12/21 03:10:49;;;;;;;27.83;19.10;;;4.90;70.10;;;;;;6284791;22;39015;-80
2020/12/21 03:13:19;;;;;;;27.17;19.73;;;4.80;70.00;;;;;;6283296;22;37487;-80
2020/12/21 03:15:49;;;;;;;30.00;21.20;;;4.80;70.00;;;;;;6280957;22;39462;-79
2020/12/21 03:18:15;;;;;;;29.30;20.00;;;4.80;69.80;;;;;;6250590;22;39406;-79
2020/12/21 03:20:42;;;;;;;37.67;21.77;;;4.70;69.50;;;;;;6249787;22;39144;-80
2020/12/21 03:23:11;;;;;;;29.87;20.00;;;4.60;69.40;;;;;;6249528;22;38864;-79
2020/12/21 03:25:39;;;;;;;29.23;19.60;;;4.50;69.20;;;;;;6223062;22;38449;-79
2020/12/21 03:28:06;;;;;;;31.13;20.10;;;4.50;69.20;;;;;;6250413;22;38965;-79
2020/12/21 03:30:34;;;;;;;27.80;19.47;;;4.40;69.20;;;;;;6249319;22;38172;-79
2020/12/21 03:33:01;;;;;;;29.03;18.37;;;4.30;69.20;;;;;;6223468;22;37220;-79
2020/12/21 03:35:28;;;;;;;28.90;19.20;;;4.30;69.40;;;;;;6249270;22;39480;-79
2020/12/21 03:37:55;;;;;;;29.07;19.70;;;4.20;69.40;;;;;;6250354;22;39226;-79
2020/12/21 03:40:22;;;;;;;31.80;19.17;;;4.20;69.30;;;;;;6249164;22;38730;-79
2020/12/21 03:42:51;;;;;;;27.20;18.57;;;4.10;69.40;;;;;;6249353;22;37598;-79
2020/12/21 03:45:18;;;;;;;33.40;20.17;;;4.20;69.50;;;;;;6222501;22;38393;-79
2020/12/21 03:47:46;;;;;;;27.83;19.50;;;4.10;69.20;;;;;;6222737;22;37894;-79
2020/12/21 03:50:13;;;;;;;30.70;20.53;;;4.00;69.20;;;;;;6249695;22;37833;-79
2020/12/21 03:52:40;;;;;;;26.27;18.50;;;3.90;69.40;;;;;;6249641;22;37250;-78
2020/12/21 03:55:08;;;;;;;29.27;19.40;;;3.90;69.60;;;;;;6222073;22;39895;-79
2020/12/21 03:57:34;;;;;;;29.03;19.40;;;3.80;69.40;;;;;;6223042;22;37693;-79
2020/12/21 04:00:04;;;;;;;31.33;19.50;;;3.80;69.40;;;;;;6249834;22;38124;-79
2020/12/21 04:02:39;;;;;;;28.53;18.73;;;3.70;69.50;;;;;;6249661;22;38659;-80
2020/12/21 04:05:07;;;;;;;32.97;20.27;;;3.70;69.70;;;;;;6221326;22;39770;-79
2020/12/21 04:07:35;;;;;;;33.37;21.00;;;3.70;70.00;;;;;;6249731;22;39013;-81
2020/12/21 04:10:04;;;;;;;31.33;21.70;;;3.70;70.10;;;;;;6247124;22;37345;-79
2020/12/21 04:12:31;;;;;;;29.47;19.77;;;3.80;70.00;;;;;;6250191;22;36945;-79
2020/12/21 04:14:58;;;;;;;35.23;20.73;;;3.70;70.10;;;;;;6249153;22;39578;-79
2020/12/21 04:17:25;;;;;;;30.13;20.60;;;3.70;70.10;;;;;;6241657;22;37847;-79
2020/12/21 04:19:52;;;;;;;33.10;22.03;;;3.70;70.10;;;;;;6252091;22;36926;-79
2020/12/21 04:22:20;;;;;;;35.43;21.70;;;3.60;69.90;;;;;;6257458;22;36214;-79
2020/12/21 04:24:47;;;;;;;32.60;20.40;;;3.60;70.00;;;;;;6226394;22;38173;-79
2020/12/21 04:27:14;;;;;;;30.73;21.27;;;3.60;69.90;;;;;;6252106;22;38848;-81
2020/12/21 04:29:41;;;;;;;32.20;19.77;;;3.50;69.90;;;;;;6280064;22;38949;-80
2020/12/21 04:32:09;;;;;;;32.60;20.40;;;3.50;69.90;;;;;;6253233;22;36051;-81
2020/12/21 04:34:36;;;;;;;26.03;18.50;;;3.50;69.90;;;;;;6279901;22;39402;-81
2020/12/21 04:37:03;;;;;;;31.90;19.47;;;3.50;69.90;;;;;;6251901;22;37659;-78
2020/12/21 04:39:32;;;;;;;27.03;18.60;;;3.40;69.70;;;;;;6289554;22;38936;-78
2020/12/21 04:42:00;;;;;;;29.60;19.30;;;3.40;69.90;;;;;;6271179;22;36117;-80
2020/12/21 04:44:27;;;;;;;28.83;18.70;;;3.40;69.90;;;;;;6290514;22;39793;-80
2020/12/21 04:46:58;;;;;;;28.23;18.90;;;3.30;69.80;;;;;;6259634;22;38873;-81
2020/12/21 04:49:27;;;;;;;29.50;19.17;;;3.30;69.80;;;;;;6253313;22;37723;-81
2020/12/21 04:51:54;;;;;;;30.20;19.70;;;3.30;69.80;;;;;;6280124;22;37667;-81
2020/12/21 04:54:24;;;;;;;29.07;18.10;;;3.30;70.00;;;;;;6279896;22;40775;-82
2020/12/21 04:56:52;;;;;;;27.93;17.53;;;3.30;70.00;;;;;;6280380;22;39825;-81
2020/12/21 04:59:21;;;;;;;28.33;18.60;;;3.30;70.40;;;;;;6279672;22;38037;-81
2020/12/21 05:01:48;;;;;;;24.80;17.93;;;3.30;70.00;;;;;;6280921;22;37230;-81
2020/12/21 05:04:15;;;;;;;29.33;18.67;;;3.40;70.10;;;;;;6280080;22;40244;-80
2020/12/21 05:06:50;;;;;;;26.93;18.20;;;3.30;70.00;;;;;;6280550;22;40095;-80
2020/12/21 05:09:20;;;;;;;26.97;18.70;;;3.30;70.10;;;;;;6281041;22;38449;-81
2020/12/21 05:11:54;;;;;;;27.07;18.60;;;3.30;70.00;;;;;;6279750;22;38237;-81
2020/12/21 05:14:31;;;;;;;27.57;18.30;;;3.20;70.10;;;;;;6279831;22;39644;-81
2020/12/21 05:17:10;;;;;;;32.70;18.67;;;3.20;70.20;;;;;;6268753;22;40043;-80
2020/12/21 05:19:38;;;;;;;26.67;17.80;;;3.20;69.90;;;;;;6223224;22;37848;-80
2020/12/21 05:22:10;;;;;;;34.37;19.87;;;3.20;69.80;;;;;;6249091;22;37576;-80
2020/12/21 05:24:37;;;;;;;28.37;17.97;;;3.20;70.00;;;;;;6249012;22;39535;-80
2020/12/21 05:27:15;;;;;;;28.07;17.87;;;3.20;70.30;;;;;;6249319;22;39481;-80
2020/12/21 05:29:51;;;;;;;25.07;17.10;;;3.20;70.50;;;;;;6249056;22;38344;-80
2020/12/21 05:32:19;;;;;;;24.90;18.60;;;3.30;70.40;;;;;;6222422;22;36260;-80
2020/12/21 05:34:46;;;;;;;25.63;17.60;;;3.30;70.60;;;;;;6248688;22;39877;-80
2020/12/21 05:37:14;;;;;;;22.07;16.30;;;3.40;70.70;;;;;;6249757;22;38965;-80
2020/12/21 05:39:51;;;;;;;25.03;16.57;;;3.40;70.20;;;;;;6249565;22;37871;-80
2020/12/21 05:42:25;;;;;;;29.43;17.07;;;3.30;70.00;;;;;;6249877;22;38161;-80
2020/12/21 05:44:55;;;;;;;20.40;16.07;;;3.30;70.00;;;;;;6251120;22;39801;-80
2020/12/21 05:47:23;;;;;;;20.70;15.17;;;3.30;70.30;;;;;;6252290;22;39048;-78
2020/12/21 05:49:53;;;;;;;23.53;15.80;;;3.30;69.80;;;;;;6251227;22;38531;-80
2020/12/21 05:52:31;;;;;;;20.50;14.40;;;3.30;69.80;;;;;;6252886;22;37588;-80
2020/12/21 05:55:03;;;;;;;20.40;15.40;;;3.20;69.70;;;;;;6228424;22;38440;-79
2020/12/21 05:57:32;;;;;;;20.23;15.17;;;3.10;69.60;;;;;;6235491;22;38354;-78
2020/12/21 06:00:01;;;;;;;21.17;14.30;;;3.10;69.60;;;;;;6264502;22;38327;-81
2020/12/21 06:02:32;;;;;;;23.30;16.40;;;3.00;69.50;;;;;;6259434;22;38530;-79
2020/12/21 06:05:12;;;;;;;21.67;14.10;;;3.00;69.60;;;;;;6256681;22;40677;-79
2020/12/21 06:07:49;;;;;;;21.60;14.13;;;2.90;69.40;;;;;;6257819;22;39636;-80
2020/12/21 06:10:19;;;;;;;27.37;16.17;;;2.80;69.30;;;;;;6253089;22;39055;-81
2020/12/21 06:12:53;;;;;;;20.93;14.77;;;2.80;69.30;;;;;;6228400;22;38351;-79
2020/12/21 06:15:25;;;;;;;21.70;14.77;;;2.80;69.30;;;;;;6263833;22;39840;-80
2020/12/21 06:17:52;;;;;;;24.37;16.40;;;2.70;69.30;;;;;;6265244;22;39258;-80
2020/12/21 06:20:21;;;;;;;28.00;17.53;;;2.70;69.40;;;;;;6233321;22;36666;-80
2020/12/21 06:22:51;;;;;;;24.80;17.00;;;2.70;69.50;;;;;;6265482;22;37870;-81
2020/12/21 06:25:22;;;;;;;24.80;17.20;;;2.70;69.30;;;;;;6271877;22;40233;-80
2020/12/21 06:27:50;;;;;;;22.67;16.83;;;2.60;69.30;;;;;;6235288;22;38822;-80
2020/12/21 06:30:17;;;;;;;30.30;18.97;;;2.60;69.60;;;;;;6256339;22;38005;-80
2020/12/21 06:32:47;;;;;;;24.90;17.70;;;2.60;69.80;;;;;;6225703;22;36551;-79
2020/12/21 06:35:20;;;;;;;27.87;17.67;;;2.60;69.60;;;;;;6251643;22;40793;-80
2020/12/21 06:37:59;;;;;;;25.70;17.93;;;2.60;69.80;;;;;;6250220;22;39770;-79
2020/12/21 06:40:32;;;;;;;24.80;16.80;;;2.50;69.80;;;;;;6250042;22;38002;-79
2020/12/21 06:43:10;;;;;;;29.87;18.10;;;2.50;70.00;;;;;;6224599;22;36536;-79
2020/12/21 06:45:40;;;;;;;25.70;18.57;;;2.60;70.10;;;;;;6250810;22;40418;-80
2020/12/21 06:48:08;;;;;;;29.40;18.73;;;2.60;70.00;;;;;;6250802;22;39197;-80
2020/12/21 06:50:35;;;;;;;27.53;18.03;;;2.60;70.00;;;;;;6248216;22;37781;-80
2020/12/21 06:53:06;;;;;;;25.40;17.77;;;2.60;70.10;;;;;;6223032;22;37057;-80
2020/12/21 06:55:34;;;;;;;23.37;16.80;;;2.60;70.10;;;;;;6224148;22;40059;-80
2020/12/21 06:58:03;;;;;;;24.43;18.50;;;2.70;70.10;;;;;;6250438;22;39946;-80
2020/12/21 07:00:31;;;;;;;27.50;17.50;;;2.60;70.10;;;;;;6224595;22;38057;-80
2020/12/21 07:03:00;;;;;;;29.80;18.97;;;2.70;70.20;;;;;;6250624;22;37546;-81
2020/12/21 07:05:27;;;;;;;30.07;18.23;;;2.70;70.30;;;;;;6224126;22;39635;-80
2020/12/21 07:07:58;;;;;;;26.17;16.77;;;2.80;70.60;;;;;;6250308;22;38754;-81
2020/12/21 07:10:24;;;;;;;21.77;16.70;;;2.90;70.80;;;;;;6250196;22;39202;-80
2020/12/21 07:12:53;;;;;;;25.77;17.50;;;2.90;70.90;;;;;;6250377;22;37326;-80
2020/12/21 07:15:21;;;;;;;25.10;17.37;;;3.00;71.10;;;;;;6250290;22;41184;-80
2020/12/21 07:17:49;;;;;;;24.23;16.70;;;3.10;71.10;;;;;;6252108;22;39398;-81
2020/12/21 07:20:16;;;;;;;24.47;18.63;;;3.20;71.20;;;;;;6250700;22;38439;-80
2020/12/21 07:22:43;;;;;;;23.10;16.90;;;3.20;71.10;;;;;;6223881;22;37223;-80
2020/12/21 07:25:11;;;;;;;28.07;18.63;;;3.20;71.10;;;;;;6251058;22;39633;-80
2020/12/21 07:27:38;;;;;;;25.30;17.10;;;3.30;71.00;;;;;;6250738;22;38982;-80
2020/12/21 07:30:08;;;;;;;20.20;16.73;;;3.30;71.00;;;;;;6251101;22;39082;-81
2020/12/21 07:32:36;;;;;;;23.00;16.57;;;3.30;71.00;;;;;;6251573;22;37647;-80
2020/12/21 07:35:04;;;;;;;24.63;18.60;;;3.40;71.30;;;;;;6249441;22;39758;-82
2020/12/21 07:37:32;;;;;;;21.50;16.10;;;3.40;71.70;;;;;;6250100;22;39953;-81
2020/12/21 07:40:04;;;;;;;29.87;17.53;;;3.50;71.30;;;;;;6222338;22;37926;-81
2020/12/21 07:42:33;;;;;;;21.47;16.23;;;3.60;71.20;;;;;;6222978;22;36049;-81
2020/12/21 07:45:02;;;;;;;25.33;18.10;;;3.60;71.10;;;;;;6259437;22;39317;-82
2020/12/21 07:47:34;;;;;;;24.47;17.53;;;3.60;70.90;;;;;;6250266;22;39376;-81
2020/12/21 07:50:03;;;;;;;23.00;18.37;;;3.70;70.90;;;;;;6246926;22;37250;-81
2020/12/21 07:52:31;;;;;;;23.23;18.40;;;3.70;71.00;;;;;;6253174;22;38719;-80
2020/12/21 07:54:59;;;;;;;25.33;19.43;;;3.70;71.10;;;;;;6225201;22;39838;-80
2020/12/21 07:57:29;;;;;;;23.63;16.63;;;3.80;71.20;;;;;;6250598;22;38739;-80
2020/12/21 07:59:57;;;;;;;24.90;19.17;;;3.80;71.00;;;;;;6249398;22;39208;-80
2020/12/21 08:02:25;;;;;;;25.03;19.47;;;3.80;70.90;;;;;;6250134;22;37018;-81
2020/12/21 08:04:53;;;;;;;25.07;18.57;;;3.90;71.10;;;;;;6250166;22;39760;-81
2020/12/21 08:07:27;;;;;;;22.30;18.27;;;4.00;71.00;;;;;;6250043;22;39715;-80
2020/12/21 08:09:54;;;;;;;24.87;18.90;;;4.00;70.90;;;;;;6222713;22;38557;-79
2020/12/21 08:12:23;;;;;;;28.80;19.00;;;4.10;70.90;;;;;;6249755;22;37504;-81
2020/12/21 08:15:00;;;;;;;22.17;17.67;;;4.10;70.80;;;;;;6249944;22;40331;-81
2020/12/21 08:17:29;;;;;;;31.23;20.33;;;4.20;70.50;;;;;;6239686;22;37904;-81
2020/12/21 08:19:58;;;;;;;23.30;16.53;;;4.30;70.50;;;;;;6281483;22;37866;-81
2020/12/21 08:22:27;;;;;;;22.33;18.03;;;4.30;70.70;;;;;;6280519;22;37432;-80
2020/12/21 08:25:00;;;;;;;22.47;17.30;;;4.40;70.70;;;;;;6281738;22;40557;-81
2020/12/21 08:27:27;;;;;;;24.00;17.97;;;4.50;70.80;;;;;;6255161;22;38097;-80
2020/12/21 08:30:07;;;;;;;22.70;17.93;;;4.70;70.70;;;;;;6253334;22;36903;-80
2020/12/21 08:32:34;;;;;;;23.47;16.80;;;4.80;70.40;;;;;;6257152;22;36204;-80
2020/12/21 08:35:01;;;;;;;24.47;19.03;;;4.80;70.00;;;;;;6256699;22;38573;-80
2020/12/21 08:37:29;;;;;;;26.60;18.93;;;4.90;69.10;;;;;;6256160;22;38147;-79
2020/12/21 08:40:08;;;;;;;23.70;18.70;;;5.00;69.60;;;;;;6284868;22;39182;-80
2020/12/21 08:42:38;;;;;;;29.40;23.60;;;5.20;69.40;;;;;;6257329;22;37201;-79
2020/12/21 08:45:06;;;;;;;19.83;17.73;;;5.30;68.90;;;;;;6263077;22;38923;-80
2020/12/21 08:47:33;;;;;;;22.67;16.67;;;5.40;68.70;;;;;;6288334;22;39210;-81
2020/12/21 08:50:02;;;;;;;20.50;14.70;;;5.50;67.90;;;;;;6285024;22;38992;-82
2020/12/21 08:52:32;;;;;;;17.60;15.23;;;5.50;67.50;;;;;;6255816;22;36516;-81
2020/12/21 08:54:59;;;;;;;17.80;14.03;;;5.60;67.30;;;;;;6283796;22;40805;-80
2020/12/21 08:57:28;;;;;;;19.43;14.53;;;5.60;66.50;;;;;;6283905;22;39914;-80
2020/12/21 08:59:55;;;;;;;15.43;12.67;;;5.70;66.50;;;;;;6284191;22;37979;-80
2020/12/21 09:02:22;;;;;;;14.93;13.03;;;5.70;65.40;;;;;;6254216;22;36713;-77
2020/12/21 09:04:49;;;;;;;13.67;12.27;;;5.80;65.20;;;;;;6254009;22;38151;-78
2020/12/21 09:07:18;;;;;;;17.33;12.37;;;5.90;64.40;;;;;;6282508;22;39614;-79
2020/12/21 09:09:46;;;;;;;17.53;14.00;;;5.90;64.40;;;;;;6283284;22;39234;-79
2020/12/21 09:12:13;;;;;;;15.63;13.93;;;6.00;63.70;;;;;;6284628;22;37330;-81
2020/12/21 09:14:40;;;;;;;16.60;13.83;;;6.10;63.80;;;;;;6253169;22;39456;-80
2020/12/21 09:17:07;;;;;;;16.27;12.53;;;6.20;63.40;;;;;;6267655;22;38899;-81
2020/12/21 09:19:34;;;;;;;17.23;13.10;;;6.30;62.90;;;;;;6249785;22;38573;-81
2020/12/21 09:22:01;;;;;;;14.63;12.23;;;6.40;61.90;;;;;;6250165;22;37518;-81
2020/12/21 09:24:28;;;;;;;12.17;10.87;;;6.40;61.80;;;;;;6223507;22;40179;-81
2020/12/21 09:26:56;;;;;;;14.33;11.60;;;6.50;61.70;;;;;;6249934;22;39133;-81
2020/12/21 09:29:25;;;;;;;12.17;10.37;;;6.50;61.10;;;;;;6223905;22;37724;-81
2020/12/21 09:31:52;;;;;;;15.70;11.60;;;6.60;60.90;;;;;;6251123;22;37411;-81
2020/12/21 09:34:19;;;;;;;13.23;11.17;;;6.60;60.00;;;;;;6228237;22;38123;-80
2020/12/21 09:36:46;;;;;;;12.60;11.30;;;6.60;60.50;;;;;;6255752;22;39971;-81
2020/12/21 09:39:15;;;;;;;15.27;12.53;;;6.80;60.20;;;;;;6256975;22;39211;-80
2020/12/21 09:41:42;;;;;;;12.60;11.23;;;6.90;59.80;;;;;;6257828;22;37890;-81
2020/12/21 09:44:10;;;;;;;11.53;10.10;;;6.90;59.40;;;;;;6252107;22;38349;-81
2020/12/21 09:46:40;;;;;;;12.37;10.70;;;7.00;59.10;;;;;;6225086;22;39411;-82
2020/12/21 09:49:15;;;;;;;9.93;8.90;;;7.10;59.30;;;;;;6251174;22;37648;-79
2020/12/21 09:51:42;;;;;;;12.67;9.87;;;7.20;59.30;;;;;;6265444;22;37484;-86
2020/12/21 09:54:18;;;;;;;9.77;8.77;;;7.30;58.60;;;;;;6241120;22;38990;-85
2020/12/21 09:57:02;;;;;;;15.60;11.00;;;7.50;58.20;;;;;;6238557;22;39550;-86
2020/12/21 09:59:30;;;;;;;12.03;10.00;;;7.50;58.10;;;;;;6240651;22;38611;-85
2020/12/21 10:01:58;;;;;;;12.90;10.30;;;7.60;57.90;;;;;;6243677;22;36712;-84
2020/12/21 10:04:25;;;;;;;15.07;11.40;;;7.60;57.80;;;;;;6270154;22;40793;-85
2020/12/21 10:06:53;;;;;;;11.47;10.27;;;7.60;57.40;;;;;;6270734;22;39547;-84
2020/12/21 10:09:21;;;;;;;12.97;11.50;;;7.70;57.60;;;;;;6269428;22;39454;-84
2020/12/21 10:11:51;;;;;;;14.07;11.20;;;7.70;57.50;;;;;;6235160;22;36475;-85
2020/12/21 10:14:21;;;;;;;15.63;11.10;;;7.80;57.30;;;;;;6262266;22;39836;-83
2020/12/21 10:16:53;;;;;;;13.10;11.67;;;7.80;57.30;;;;;;6242319;22;39056;-85
2020/12/21 10:19:21;;;;;;;14.50;11.60;;;7.90;57.00;;;;;;6286485;22;38161;-86
2020/12/21 10:21:48;;;;;;;12.93;11.27;;;8.00;56.90;;;;;;6285213;22;38273;-85
2020/12/21 10:24:20;;;;;;;15.97;13.33;;;8.10;57.00;;;;;;6281440;22;40511;-84
2020/12/21 10:26:57;;;;;;;13.77;12.13;;;8.10;56.70;;;;;;6280790;22;38734;-85
2020/12/21 10:29:24;;;;;;;16.33;12.73;;;8.10;56.30;;;;;;6228683;22;38141;-85
2020/12/21 10:31:52;;;;;;;12.90;11.13;;;8.10;56.70;;;;;;6280993;22;37358;-86
2020/12/21 10:34:19;;;;;;;16.80;11.80;;;8.20;56.50;;;;;;6255499;22;38903;-86
2020/12/21 10:36:50;;;;;;;12.40;11.10;;;8.10;56.60;;;;;;6282167;22;39119;-85
2020/12/21 10:39:17;;;;;;;14.13;11.07;;;8.20;56.70;;;;;;6256246;22;37459;-85
2020/12/21 10:41:44;;;;;;;15.40;10.73;;;8.20;56.80;;;;;;6284540;22;37318;-85
2020/12/21 10:44:14;;;;;;;14.47;12.30;;;8.20;56.90;;;;;;6258334;22;39198;-85
2020/12/21 10:46:41;;;;;;;12.77;11.30;;;8.20;56.70;;;;;;6255968;22;39400;-85
2020/12/21 10:49:10;;;;;;;15.33;10.70;;;8.20;57.10;;;;;;6285611;22;38301;-86
2020/12/21 10:51:37;;;;;;;15.07;11.67;;;8.20;56.50;;;;;;6282189;22;37509;-86
2020/12/21 10:54:04;;;;;;;13.17;10.60;;;8.20;57.00;;;;;;6255704;22;38456;-87
2020/12/21 10:56:33;;;;;;;12.13;10.20;;;8.20;57.10;;;;;;6259551;22;38634;-87
2020/12/21 10:59:03;;;;;;;14.57;11.00;;;8.30;56.70;;;;;;6261335;22;38460;-85
2020/12/21 11:01:31;;;;;;;18.13;12.20;;;8.30;56.60;;;;;;6260614;22;37025;-86
2020/12/21 11:03:58;;;;;;;16.57;10.87;;;8.40;57.00;;;;;;6261136;22;38419;-86
2020/12/21 11:06:26;;;;;;;13.23;10.67;;;8.50;56.90;;;;;;6285580;22;39749;-87
2020/12/21 11:08:56;;;;;;;13.27;10.53;;;8.60;56.50;;;;;;6287778;22;37907;-87
2020/12/21 11:11:27;;;;;;;13.50;10.63;;;8.70;56.50;;;;;;6261341;22;37034;-86
2020/12/21 11:13:55;;;;;;;10.80;9.00;;;8.80;56.50;;;;;;6287875;22;39663;-86
2020/12/21 11:16:22;;;;;;;11.97;9.30;;;8.80;56.40;;;;;;6286137;22;39845;-87
2020/12/21 11:18:51;;;;;;;9.40;8.43;;;8.80;56.30;;;;;;6258158;22;38278;-87
2020/12/21 11:21:20;;;;;;;11.03;9.23;;;8.90;56.50;;;;;;6231425;22;35600;-87
2020/12/21 11:23:48;;;;;;;12.20;9.33;;;8.90;56.40;;;;;;6258981;22;40202;-87
2020/12/21 11:26:16;;;;;;;15.97;10.73;;;9.00;56.50;;;;;;6230137;22;38118;-87
2020/12/21 11:28:43;;;;;;;14.00;11.27;;;9.10;56.40;;;;;;6259532;22;37382;-87
2020/12/21 11:31:09;;;;;;;14.93;10.97;;;9.10;56.40;;;;;;6260435;22;37498;-86
2020/12/21 11:33:36;;;;;;;13.60;10.50;;;9.20;56.30;;;;;;6255681;22;39705;-88
2020/12/21 11:36:03;;;;;;;14.40;10.90;;;9.30;56.30;;;;;;6231184;22;37585;-88
2020/12/21 11:38:31;;;;;;;14.50;11.77;;;9.40;55.90;;;;;;6259070;22;38749;-88
2020/12/21 11:40:59;;;;;;;12.07;10.87;;;9.40;55.70;;;;;;6230976;22;36084;-85
2020/12/21 11:43:28;;;;;;;14.50;12.27;;;9.40;55.60;;;;;;6257901;22;40071;-86
2020/12/21 11:45:58;;;;;;;15.13;12.30;;;9.50;55.90;;;;;;6261139;22;39377;-86
2020/12/21 11:48:26;;;;;;;12.33;9.77;;;9.50;55.60;;;;;;6258985;22;38648;-85
2020/12/21 11:50:53;;;;;;;12.50;10.40;;;9.60;55.50;;;;;;6260341;22;37587;-86
2020/12/21 11:53:20;;;;;;;10.20;9.20;;;9.60;55.30;;;;;;6259456;22;39671;-86
2020/12/21 11:55:47;;;;;;;9.57;8.20;;;9.60;55.20;;;;;;6231299;22;37569;-85
2020/12/21 11:58:15;;;;;;;10.30;8.37;;;9.70;55.00;;;;;;6234311;22;37121;-86
2020/12/21 12:00:43;;;;;;;10.33;7.17;;;9.60;55.00;;;;;;6235160;22;35811;-84
2020/12/21 12:03:13;;;;;;;9.43;8.53;;;9.60;55.10;;;;;;6261005;22;40524;-85
2020/12/21 12:05:42;;;;;;;10.63;9.50;;;9.60;55.30;;;;;;6227960;22;38037;-86
2020/12/21 12:08:10;;;;;;;9.70;8.67;;;9.60;55.40;;;;;;6254617;22;39566;-85
2020/12/21 12:10:41;;;;;;;10.00;8.70;;;9.60;55.30;;;;;;6256012;22;37510;-86
2020/12/21 12:13:11;;;;;;;10.07;9.07;;;9.50;55.30;;;;;;6252587;22;40162;-85
2020/12/21 12:15:42;;;;;;;15.50;10.07;;;9.50;55.30;;;;;;6227628;22;39355;-86
2020/12/21 12:18:10;;;;;;;9.10;8.20;;;9.50;55.50;;;;;;6257108;22;36686;-86
2020/12/21 12:20:38;;;;;;;10.50;9.30;;;9.50;55.60;;;;;;6289889;22;38187;-86
2020/12/21 12:23:09;;;;;;;11.23;9.10;;;9.50;55.60;;;;;;6260611;22;39631;-86
2020/12/21 12:25:36;;;;;;;10.70;8.63;;;9.50;55.50;;;;;;6283425;22;39197;-86
2020/12/21 12:28:03;;;;;;;9.90;8.87;;;9.50;55.70;;;;;;6256231;22;38023;-86
2020/12/21 12:30:30;;;;;;;10.23;9.23;;;9.50;55.90;;;;;;6286803;22;37458;-86
2020/12/21 12:32:59;;;;;;;11.40;9.10;;;9.60;56.10;;;;;;6290084;22;39844;-85
2020/12/21 12:35:26;;;;;;;9.70;8.67;;;9.80;55.90;;;;;;6288141;22;39313;-85
2020/12/21 12:37:53;;;;;;;13.50;10.20;;;9.90;55.70;;;;;;6287450;22;38027;-84
2020/12/21 12:40:20;;;;;;;14.27;11.40;;;9.90;55.50;;;;;;6288203;22;38578;-84
2020/12/21 12:42:47;;;;;;;11.10;9.70;;;10.00;53.80;;;;;;6281474;22;39597;-85
2020/12/21 12:45:14;;;;;;;10.87;8.90;;;10.10;53.80;;;;;;6281781;22;39292;-85